DAL232 KPIT-KDTW
Flight info
| Callsign | DAL232 |
|---|---|
| Flight time | 0h 45m |
| Altitude | 26000 |
| Route | BSV EEEZI BONZZ BONZZ2 |
| Aircraft | A321/M-SDE3FGHIRWY/LB1 |
Departure
| Time | 2026-05-07 23:53 |
|---|---|
| Airport | Pittsburgh International Airport (KPIT) |
Arrival
| Time | 2026-05-08 00:38 |
|---|---|
| Airport | Detroit Metropolitan Wayne County Airport (KDTW) |
| Time | Latitude | Longitude | Altitude | Speed | Heading |
|---|---|---|---|---|---|
| 2026-05-07 23:14 | 40.49795 | -80.24419 | 1156 ft | 0 kts | 101° |
| 2026-05-07 23:33 | 40.49798 | -80.24435 | 1155 ft | 4 kts | 107° |
| 2026-05-07 23:34 | 40.49809 | -80.24467 | 1153 ft | 4 kts | 119° |
| 2026-05-07 23:34 | 40.49817 | -80.24487 | 1154 ft | 2 kts | 49° |
| 2026-05-07 23:34 | 40.49816 | -80.24489 | 1154 ft | 0 kts | 47° |
| 2026-05-07 23:39 | 40.49817 | -80.24486 | 1154 ft | 1 kts | 47° |
| 2026-05-07 23:40 | 40.49830 | -80.24468 | 1155 ft | 4 kts | 47° |
| 2026-05-07 23:40 | 40.49856 | -80.24433 | 1155 ft | 7 kts | 46° |
| 2026-05-07 23:40 | 40.49894 | -80.24380 | 1155 ft | 9 kts | 46° |
| 2026-05-07 23:40 | 40.49941 | -80.24338 | 1155 ft | 9 kts | 14° |
| 2026-05-07 23:41 | 40.50014 | -80.24329 | 1155 ft | 12 kts | 12° |
| 2026-05-07 23:41 | 40.50049 | -80.24232 | 1155 ft | 14 kts | 91° |
| 2026-05-07 23:41 | 40.50047 | -80.24087 | 1154 ft | 18 kts | 91° |
| 2026-05-07 23:41 | 40.50042 | -80.23910 | 1154 ft | 21 kts | 93° |
| 2026-05-07 23:42 | 40.50036 | -80.23707 | 1153 ft | 23 kts | 92° |
| 2026-05-07 23:42 | 40.50032 | -80.23537 | 1153 ft | 17 kts | 91° |
| 2026-05-07 23:42 | 40.50029 | -80.23380 | 1153 ft | 17 kts | 91° |
| 2026-05-07 23:42 | 40.50024 | -80.23236 | 1154 ft | 15 kts | 92° |
| 2026-05-07 23:43 | 40.49998 | -80.23115 | 1155 ft | 14 kts | 118° |
| 2026-05-07 23:43 | 40.49953 | -80.23008 | 1155 ft | 13 kts | 119° |
| 2026-05-07 23:43 | 40.49909 | -80.22905 | 1155 ft | 13 kts | 119° |
| 2026-05-07 23:43 | 40.49866 | -80.22804 | 1155 ft | 12 kts | 119° |
| 2026-05-07 23:44 | 40.49839 | -80.22739 | 1155 ft | 12 kts | 120° |
| 2026-05-07 23:44 | 40.49797 | -80.22643 | 1155 ft | 12 kts | 120° |
| 2026-05-07 23:44 | 40.49756 | -80.22548 | 1155 ft | 12 kts | 119° |
| 2026-05-07 23:44 | 40.49716 | -80.22454 | 1155 ft | 12 kts | 119° |
| 2026-05-07 23:45 | 40.49672 | -80.22361 | 1155 ft | 12 kts | 126° |
| 2026-05-07 23:45 | 40.49618 | -80.22282 | 1155 ft | 11 kts | 136° |
| 2026-05-07 23:45 | 40.49560 | -80.22211 | 1155 ft | 11 kts | 136° |
| 2026-05-07 23:45 | 40.49504 | -80.22141 | 1155 ft | 11 kts | 136° |
| 2026-05-07 23:46 | 40.49450 | -80.22074 | 1155 ft | 10 kts | 136° |
| 2026-05-07 23:46 | 40.49399 | -80.22010 | 1155 ft | 10 kts | 137° |
| 2026-05-07 23:46 | 40.49349 | -80.21949 | 1155 ft | 10 kts | 137° |
| 2026-05-07 23:46 | 40.49301 | -80.21891 | 1155 ft | 9 kts | 137° |
| 2026-05-07 23:47 | 40.49255 | -80.21834 | 1155 ft | 9 kts | 136° |
| 2026-05-07 23:47 | 40.49211 | -80.21779 | 1155 ft | 9 kts | 137° |
| 2026-05-07 23:47 | 40.49167 | -80.21726 | 1154 ft | 9 kts | 138° |
| 2026-05-07 23:47 | 40.49121 | -80.21676 | 1154 ft | 9 kts | 140° |
| 2026-05-07 23:48 | 40.49074 | -80.21625 | 1154 ft | 9 kts | 139° |
| 2026-05-07 23:48 | 40.49027 | -80.21571 | 1153 ft | 9 kts | 139° |
| 2026-05-07 23:48 | 40.48993 | -80.21495 | 1152 ft | 10 kts | 108° |
| 2026-05-07 23:48 | 40.48986 | -80.21406 | 1152 ft | 10 kts | 91° |
| 2026-05-07 23:49 | 40.48984 | -80.21322 | 1152 ft | 9 kts | 91° |
| 2026-05-07 23:49 | 40.48983 | -80.21243 | 1152 ft | 8 kts | 92° |
| 2026-05-07 23:49 | 40.48981 | -80.21169 | 1152 ft | 8 kts | 92° |
| 2026-05-07 23:49 | 40.48979 | -80.21114 | 1152 ft | 2 kts | 92° |
| 2026-05-07 23:50 | 40.48979 | -80.21109 | 1152 ft | 0 kts | 92° |
| 2026-05-07 23:51 | 40.48978 | -80.21103 | 1152 ft | 4 kts | 92° |
| 2026-05-07 23:51 | 40.48975 | -80.21005 | 1152 ft | 17 kts | 93° |
| 2026-05-07 23:52 | 40.48896 | -80.20955 | 1151 ft | 7 kts | 225° |
| 2026-05-07 23:52 | 40.48893 | -80.21004 | 1150 ft | 8 kts | 268° |
| 2026-05-07 23:52 | 40.48900 | -80.21385 | 1149 ft | 87 kts | 272° |
| 2026-05-07 23:52 | 40.48929 | -80.22533 | 1151 ft | 161 kts | 272° |
| 2026-05-07 23:53 | 40.48975 | -80.24226 | 1480 ft | 192 kts | 272° |
| 2026-05-07 23:53 | 40.49171 | -80.25932 | 2533 ft | 188 kts | 288° |
| 2026-05-07 23:53 | 40.49598 | -80.27514 | 3553 ft | 173 kts | 287° |
| 2026-05-07 23:53 | 40.49924 | -80.28988 | 4267 ft | 176 kts | 285° |
| 2026-05-07 23:54 | 40.50260 | -80.30636 | 4680 ft | 198 kts | 285° |
| 2026-05-07 23:54 | 40.50638 | -80.32491 | 4877 ft | 222 kts | 285° |
| 2026-05-07 23:54 | 40.51063 | -80.34551 | 5144 ft | 245 kts | 285° |
| 2026-05-07 23:54 | 40.51536 | -80.36809 | 5528 ft | 264 kts | 285° |
| 2026-05-07 23:55 | 40.52039 | -80.39164 | 6211 ft | 270 kts | 285° |
| 2026-05-07 23:55 | 40.52553 | -80.41556 | 6972 ft | 274 kts | 285° |
| 2026-05-07 23:55 | 40.53077 | -80.43983 | 7731 ft | 277 kts | 285° |
| 2026-05-07 23:55 | 40.53600 | -80.46406 | 8465 ft | 280 kts | 285° |
| 2026-05-07 23:56 | 40.54136 | -80.48889 | 9197 ft | 283 kts | 285° |
| 2026-05-07 23:56 | 40.54678 | -80.51393 | 9906 ft | 287 kts | 285° |
| 2026-05-07 23:56 | 40.55227 | -80.53930 | 10610 ft | 290 kts | 285° |
| 2026-05-07 23:56 | 40.55778 | -80.56490 | 11304 ft | 293 kts | 285° |
| 2026-05-07 23:57 | 40.56333 | -80.59082 | 11975 ft | 296 kts | 285° |
| 2026-05-07 23:57 | 40.56895 | -80.61699 | 12653 ft | 299 kts | 285° |
| 2026-05-07 23:57 | 40.57462 | -80.64343 | 13322 ft | 302 kts | 285° |
| 2026-05-07 23:57 | 40.58038 | -80.67015 | 13971 ft | 305 kts | 285° |
| 2026-05-07 23:58 | 40.58618 | -80.69709 | 14605 ft | 308 kts | 285° |
| 2026-05-07 23:58 | 40.59200 | -80.72430 | 15221 ft | 311 kts | 285° |
| 2026-05-07 23:58 | 40.59786 | -80.75181 | 15838 ft | 314 kts | 285° |
| 2026-05-07 23:58 | 40.60377 | -80.77962 | 16429 ft | 316 kts | 285° |
| 2026-05-07 23:59 | 40.60973 | -80.80763 | 17016 ft | 319 kts | 285° |
| 2026-05-07 23:59 | 40.61576 | -80.83591 | 17589 ft | 322 kts | 285° |
| 2026-05-07 23:59 | 40.62178 | -80.86418 | 18151 ft | 325 kts | 285° |
| 2026-05-07 23:59 | 40.62791 | -80.89296 | 18698 ft | 328 kts | 285° |
| 2026-05-08 00:00 | 40.63407 | -80.92203 | 19250 ft | 331 kts | 285° |
| 2026-05-08 00:00 | 40.64028 | -80.95139 | 19775 ft | 334 kts | 285° |
| 2026-05-08 00:00 | 40.64653 | -80.98099 | 20302 ft | 337 kts | 285° |
| 2026-05-08 00:00 | 40.65281 | -81.01075 | 20790 ft | 339 kts | 285° |
| 2026-05-08 00:01 | 40.65914 | -81.04086 | 21303 ft | 342 kts | 285° |
| 2026-05-08 00:01 | 40.66551 | -81.07117 | 21790 ft | 345 kts | 285° |
| 2026-05-08 00:01 | 40.67190 | -81.10173 | 22271 ft | 348 kts | 285° |
| 2026-05-08 00:01 | 40.67834 | -81.13253 | 22741 ft | 350 kts | 285° |
| 2026-05-08 00:02 | 40.68487 | -81.16362 | 23215 ft | 353 kts | 285° |
| 2026-05-08 00:02 | 40.69145 | -81.19491 | 23670 ft | 355 kts | 285° |
| 2026-05-08 00:02 | 40.69804 | -81.22636 | 24108 ft | 358 kts | 285° |
| 2026-05-08 00:02 | 40.70467 | -81.25810 | 24540 ft | 360 kts | 285° |
| 2026-05-08 00:03 | 40.71134 | -81.29008 | 24959 ft | 363 kts | 285° |
| 2026-05-08 00:03 | 40.71800 | -81.32224 | 25360 ft | 365 kts | 285° |
| 2026-05-08 00:03 | 40.72470 | -81.35463 | 25762 ft | 367 kts | 285° |
| 2026-05-08 00:03 | 40.73149 | -81.38726 | 25968 ft | 369 kts | 285° |
| 2026-05-08 00:04 | 40.73982 | -81.41927 | 26008 ft | 369 kts | 294° |
| 2026-05-08 00:04 | 40.75193 | -81.44912 | 26009 ft | 369 kts | 303° |
| 2026-05-08 00:04 | 40.76732 | -81.47621 | 26010 ft | 369 kts | 308° |
| 2026-05-08 00:04 | 40.78338 | -81.50265 | 26009 ft | 369 kts | 308° |
| 2026-05-08 00:05 | 40.79941 | -81.52919 | 26009 ft | 369 kts | 308° |
| 2026-05-08 00:05 | 40.81519 | -81.55540 | 26009 ft | 369 kts | 308° |
| 2026-05-08 00:05 | 40.83114 | -81.58190 | 26008 ft | 369 kts | 308° |
| 2026-05-08 00:05 | 40.84707 | -81.60848 | 26009 ft | 369 kts | 308° |
| 2026-05-08 00:06 | 40.86304 | -81.63513 | 26009 ft | 369 kts | 308° |
| 2026-05-08 00:06 | 40.87898 | -81.66170 | 26008 ft | 369 kts | 308° |
| 2026-05-08 00:06 | 40.89493 | -81.68827 | 26008 ft | 369 kts | 308° |
| 2026-05-08 00:06 | 40.91086 | -81.71483 | 26006 ft | 369 kts | 308° |
| 2026-05-08 00:07 | 40.92678 | -81.74141 | 26007 ft | 369 kts | 308° |
| 2026-05-08 00:07 | 40.94267 | -81.76802 | 26006 ft | 369 kts | 308° |
| 2026-05-08 00:07 | 40.95865 | -81.79477 | 26006 ft | 369 kts | 308° |
| 2026-05-08 00:07 | 40.97456 | -81.82139 | 26005 ft | 369 kts | 308° |
| 2026-05-08 00:08 | 40.99044 | -81.84799 | 26005 ft | 369 kts | 308° |
| 2026-05-08 00:08 | 41.00634 | -81.87467 | 26005 ft | 369 kts | 308° |
| 2026-05-08 00:08 | 41.02223 | -81.90137 | 26004 ft | 369 kts | 308° |
| 2026-05-08 00:08 | 41.03811 | -81.92803 | 26003 ft | 369 kts | 308° |
| 2026-05-08 00:09 | 41.05400 | -81.95469 | 25955 ft | 367 kts | 308° |
| 2026-05-08 00:09 | 41.06977 | -81.98118 | 25523 ft | 365 kts | 308° |
| 2026-05-08 00:09 | 41.08543 | -82.00755 | 25085 ft | 363 kts | 308° |
| 2026-05-08 00:09 | 41.10096 | -82.03374 | 24658 ft | 360 kts | 308° |
| 2026-05-08 00:10 | 41.11637 | -82.05976 | 24239 ft | 358 kts | 308° |
| 2026-05-08 00:10 | 41.13166 | -82.08565 | 24000 ft | 356 kts | 308° |
| 2026-05-08 00:10 | 41.14690 | -82.11147 | 24009 ft | 356 kts | 308° |
| 2026-05-08 00:10 | 41.16225 | -82.13747 | 24008 ft | 357 kts | 308° |
| 2026-05-08 00:11 | 41.17736 | -82.16303 | 24008 ft | 357 kts | 308° |
| 2026-05-08 00:11 | 41.19288 | -82.18935 | 24012 ft | 357 kts | 308° |
| 2026-05-08 00:11 | 41.20797 | -82.21500 | 24008 ft | 357 kts | 308° |
| 2026-05-08 00:11 | 41.22402 | -82.24069 | 24006 ft | 357 kts | 314° |
| 2026-05-08 00:12 | 41.24221 | -82.26253 | 24009 ft | 357 kts | 322° |
| 2026-05-08 00:12 | 41.26207 | -82.28311 | 24009 ft | 358 kts | 321° |
| 2026-05-08 00:12 | 41.28136 | -82.30324 | 23971 ft | 356 kts | 321° |
| 2026-05-08 00:12 | 41.30103 | -82.32385 | 23549 ft | 354 kts | 321° |
| 2026-05-08 00:13 | 41.32030 | -82.34404 | 23126 ft | 352 kts | 321° |
| 2026-05-08 00:13 | 41.33924 | -82.36392 | 22715 ft | 349 kts | 321° |
| 2026-05-08 00:13 | 41.35829 | -82.38393 | 22297 ft | 347 kts | 321° |
| 2026-05-08 00:13 | 41.37720 | -82.40383 | 21881 ft | 345 kts | 321° |
| 2026-05-08 00:14 | 41.39593 | -82.42356 | 21469 ft | 342 kts | 321° |
| 2026-05-08 00:14 | 41.41458 | -82.44319 | 21056 ft | 340 kts | 321° |
| 2026-05-08 00:14 | 41.43311 | -82.46267 | 20641 ft | 338 kts | 321° |
| 2026-05-08 00:14 | 41.45148 | -82.48204 | 20238 ft | 336 kts | 321° |
| 2026-05-08 00:15 | 41.46972 | -82.50127 | 19828 ft | 333 kts | 321° |
| 2026-05-08 00:15 | 41.48786 | -82.52040 | 19426 ft | 331 kts | 321° |
| 2026-05-08 00:15 | 41.50589 | -82.53945 | 19026 ft | 329 kts | 321° |
| 2026-05-08 00:15 | 41.52377 | -82.55837 | 18632 ft | 327 kts | 321° |
| 2026-05-08 00:16 | 41.54158 | -82.57724 | 18238 ft | 325 kts | 321° |
| 2026-05-08 00:16 | 41.55927 | -82.59595 | 17847 ft | 323 kts | 321° |
| 2026-05-08 00:16 | 41.57684 | -82.61456 | 17461 ft | 321 kts | 321° |
| 2026-05-08 00:16 | 41.59435 | -82.63312 | 17077 ft | 320 kts | 321° |
| 2026-05-08 00:17 | 41.61170 | -82.65151 | 16698 ft | 318 kts | 321° |
| 2026-05-08 00:17 | 41.62895 | -82.66984 | 16322 ft | 316 kts | 321° |
| 2026-05-08 00:17 | 41.64609 | -82.68805 | 15949 ft | 314 kts | 321° |
| 2026-05-08 00:17 | 41.66316 | -82.70619 | 15578 ft | 312 kts | 321° |
| 2026-05-08 00:18 | 41.68013 | -82.72422 | 15209 ft | 311 kts | 321° |
| 2026-05-08 00:18 | 41.69698 | -82.74215 | 15052 ft | 309 kts | 321° |
| 2026-05-08 00:18 | 41.71384 | -82.76009 | 15063 ft | 310 kts | 321° |
| 2026-05-08 00:18 | 41.73072 | -82.77810 | 15063 ft | 311 kts | 321° |
| 2026-05-08 00:19 | 41.74732 | -82.79611 | 15064 ft | 311 kts | 317° |
| 2026-05-08 00:19 | 41.76286 | -82.81674 | 15065 ft | 310 kts | 313° |
| 2026-05-08 00:19 | 41.77758 | -82.83788 | 15067 ft | 310 kts | 312° |
| 2026-05-08 00:19 | 41.79204 | -82.85936 | 15067 ft | 310 kts | 311° |
| 2026-05-08 00:20 | 41.80644 | -82.88093 | 15056 ft | 310 kts | 311° |
| 2026-05-08 00:20 | 41.82076 | -82.90235 | 14726 ft | 308 kts | 311° |
| 2026-05-08 00:20 | 41.83504 | -82.92361 | 14343 ft | 306 kts | 311° |
| 2026-05-08 00:20 | 41.84916 | -82.94446 | 13976 ft | 304 kts | 312° |
| 2026-05-08 00:21 | 41.86337 | -82.96535 | 13616 ft | 303 kts | 312° |
| 2026-05-08 00:21 | 41.87755 | -82.98616 | 13255 ft | 301 kts | 312° |
| 2026-05-08 00:21 | 41.89164 | -83.00686 | 12889 ft | 299 kts | 312° |
| 2026-05-08 00:21 | 41.90579 | -83.02774 | 12525 ft | 298 kts | 312° |
| 2026-05-08 00:22 | 41.91948 | -83.04800 | 12173 ft | 296 kts | 311° |
| 2026-05-08 00:22 | 41.93327 | -83.06847 | 11798 ft | 294 kts | 311° |
| 2026-05-08 00:22 | 41.94696 | -83.08882 | 11436 ft | 293 kts | 311° |
| 2026-05-08 00:22 | 41.96059 | -83.10910 | 11074 ft | 291 kts | 311° |
| 2026-05-08 00:23 | 41.97412 | -83.12926 | 10695 ft | 289 kts | 311° |
| 2026-05-08 00:23 | 41.98746 | -83.14915 | 10009 ft | 285 kts | 311° |
| 2026-05-08 00:23 | 42.00066 | -83.16884 | 9255 ft | 282 kts | 311° |
| 2026-05-08 00:23 | 42.01372 | -83.18833 | 8523 ft | 279 kts | 311° |
| 2026-05-08 00:24 | 42.02670 | -83.20766 | 7778 ft | 276 kts | 311° |
| 2026-05-08 00:24 | 42.03950 | -83.22674 | 7066 ft | 273 kts | 311° |
| 2026-05-08 00:24 | 42.05222 | -83.24553 | 6338 ft | 270 kts | 312° |
| 2026-05-08 00:24 | 42.06492 | -83.26399 | 5615 ft | 267 kts | 312° |
| 2026-05-08 00:25 | 42.07871 | -83.28045 | 4935 ft | 266 kts | 334° |
| 2026-05-08 00:25 | 42.09662 | -83.28535 | 4590 ft | 264 kts | 6° |
| 2026-05-08 00:25 | 42.11365 | -83.27732 | 3865 ft | 261 kts | 28° |
| 2026-05-08 00:25 | 42.12939 | -83.26524 | 3254 ft | 258 kts | 30° |
| 2026-05-08 00:26 | 42.13938 | -83.25731 | 3132 ft | 243 kts | 30° |
| 2026-05-08 00:26 | 42.15769 | -83.24263 | 3040 ft | 222 kts | 30° |
| 2026-05-08 00:26 | 42.17054 | -83.23236 | 3068 ft | 204 kts | 30° |
| 2026-05-08 00:26 | 42.18237 | -83.22295 | 3089 ft | 188 kts | 30° |
| 2026-05-08 00:27 | 42.18975 | -83.21710 | 3062 ft | 179 kts | 30° |
| 2026-05-08 00:27 | 42.20028 | -83.20882 | 3057 ft | 173 kts | 29° |
| 2026-05-08 00:27 | 42.21058 | -83.20074 | 3061 ft | 170 kts | 29° |
| 2026-05-08 00:27 | 42.22078 | -83.19272 | 3063 ft | 170 kts | 29° |
| 2026-05-08 00:28 | 42.23089 | -83.18479 | 3064 ft | 169 kts | 28° |
| 2026-05-08 00:28 | 42.24206 | -83.18038 | 3063 ft | 168 kts | 2° |
| 2026-05-08 00:28 | 42.25342 | -83.18327 | 3064 ft | 167 kts | 335° |
| 2026-05-08 00:28 | 42.26303 | -83.19191 | 3066 ft | 166 kts | 322° |
| 2026-05-08 00:29 | 42.27227 | -83.20126 | 3065 ft | 166 kts | 323° |
| 2026-05-08 00:29 | 42.28291 | -83.20687 | 3060 ft | 168 kts | 359° |
| 2026-05-08 00:29 | 42.29254 | -83.19913 | 3169 ft | 171 kts | 63° |
| 2026-05-08 00:29 | 42.29773 | -83.18499 | 3504 ft | 169 kts | 63° |
| 2026-05-08 00:30 | 42.30299 | -83.17058 | 3512 ft | 172 kts | 64° |
| 2026-05-08 00:30 | 42.30821 | -83.15611 | 3517 ft | 172 kts | 62° |
| 2026-05-08 00:30 | 42.31386 | -83.14189 | 3506 ft | 172 kts | 60° |
| 2026-05-08 00:30 | 42.32122 | -83.12949 | 3498 ft | 170 kts | 30° |
| 2026-05-08 00:31 | 42.33262 | -83.12563 | 3517 ft | 170 kts | 7° |
| 2026-05-08 00:31 | 42.34423 | -83.12279 | 3481 ft | 169 kts | 11° |
| 2026-05-08 00:31 | 42.35567 | -83.11880 | 3471 ft | 170 kts | 15° |
| 2026-05-08 00:31 | 42.36705 | -83.11436 | 3290 ft | 169 kts | 15° |
| 2026-05-08 00:32 | 42.37848 | -83.11164 | 3258 ft | 168 kts | 354° |
| 2026-05-08 00:32 | 42.38907 | -83.11766 | 3299 ft | 167 kts | 319° |
| 2026-05-08 00:32 | 42.39515 | -83.13075 | 3282 ft | 167 kts | 285° |
| 2026-05-08 00:32 | 42.39456 | -83.14616 | 3204 ft | 166 kts | 249° |
| 2026-05-08 00:33 | 42.38755 | -83.15839 | 3139 ft | 166 kts | 223° |
| 2026-05-08 00:33 | 42.37957 | -83.16967 | 3098 ft | 166 kts | 230° |
| 2026-05-08 00:33 | 42.37209 | -83.18159 | 3083 ft | 166 kts | 231° |
| 2026-05-08 00:33 | 42.36468 | -83.19355 | 3066 ft | 166 kts | 231° |
| 2026-05-08 00:34 | 42.35735 | -83.20533 | 3067 ft | 166 kts | 230° |
| 2026-05-08 00:34 | 42.34990 | -83.21724 | 3063 ft | 166 kts | 230° |
| 2026-05-08 00:34 | 42.34244 | -83.22910 | 3062 ft | 164 kts | 230° |
| 2026-05-08 00:34 | 42.33517 | -83.24059 | 3061 ft | 158 kts | 230° |
| 2026-05-08 00:35 | 42.32787 | -83.25162 | 3061 ft | 157 kts | 224° |
| 2026-05-08 00:35 | 42.31895 | -83.26019 | 2879 ft | 157 kts | 211° |
| 2026-05-08 00:35 | 42.30952 | -83.26748 | 2666 ft | 155 kts | 210° |
| 2026-05-08 00:35 | 42.30011 | -83.27456 | 2458 ft | 155 kts | 210° |
| 2026-05-08 00:36 | 42.29069 | -83.28158 | 2245 ft | 154 kts | 210° |
| 2026-05-08 00:36 | 42.28131 | -83.28853 | 2042 ft | 154 kts | 210° |
| 2026-05-08 00:36 | 42.27194 | -83.29547 | 1836 ft | 153 kts | 209° |
| 2026-05-08 00:36 | 42.26261 | -83.30236 | 1633 ft | 153 kts | 209° |
| 2026-05-08 00:37 | 42.25333 | -83.30922 | 1430 ft | 152 kts | 209° |
| 2026-05-08 00:37 | 42.24414 | -83.31600 | 1230 ft | 152 kts | 209° |
| 2026-05-08 00:37 | 42.23486 | -83.32285 | 1028 ft | 152 kts | 209° |
| 2026-05-08 00:38 | 42.21661 | -83.33637 | 663 ft | 151 kts | 209° |
| 2026-05-08 00:38 | 42.20876 | -83.34212 | 647 ft | 65 kts | 208° |
| 2026-05-08 00:38 | 42.20654 | -83.34398 | 649 ft | 30 kts | 219° |
| 2026-05-08 00:38 | 42.20577 | -83.34543 | 648 ft | 7 kts | 237° |
| 2026-05-08 00:39 | 42.20551 | -83.34596 | 649 ft | 6 kts | 238° |
| 2026-05-08 00:39 | 42.20531 | -83.34640 | 648 ft | 6 kts | 239° |
| 2026-05-08 00:39 | 42.20509 | -83.34693 | 650 ft | 7 kts | 241° |
| 2026-05-08 00:39 | 42.20473 | -83.34749 | 648 ft | 9 kts | 210° |
| 2026-05-08 00:40 | 42.20414 | -83.34801 | 648 ft | 11 kts | 213° |
| 2026-05-08 00:40 | 42.20341 | -83.34861 | 647 ft | 13 kts | 210° |
| 2026-05-08 00:40 | 42.20253 | -83.34927 | 647 ft | 16 kts | 208° |
| 2026-05-08 00:40 | 42.20165 | -83.34991 | 647 ft | 0 kts | 210° |
| 2026-05-08 00:41 | 42.20165 | -83.34992 | 647 ft | 0 kts | 218° |
| 2026-05-08 00:41 | 42.20164 | -83.34997 | 647 ft | 2 kts | 239° |
| 2026-05-08 00:41 | 42.20173 | -83.35064 | 647 ft | 10 kts | 280° |
| 2026-05-08 00:41 | 42.20180 | -83.35154 | 647 ft | 9 kts | 271° |
| 2026-05-08 00:42 | 42.20179 | -83.35238 | 648 ft | 8 kts | 268° |
| 2026-05-08 00:42 | 42.20176 | -83.35314 | 648 ft | 8 kts | 267° |
| 2026-05-08 00:42 | 42.20173 | -83.35382 | 647 ft | 7 kts | 267° |
| 2026-05-08 00:42 | 42.20172 | -83.35443 | 647 ft | 6 kts | 268° |
| 2026-05-08 00:43 | 42.20171 | -83.35496 | 647 ft | 5 kts | 269° |
| 2026-05-08 00:43 | 42.20171 | -83.35541 | 647 ft | 5 kts | 269° |
| 2026-05-08 00:43 | 42.20170 | -83.35589 | 647 ft | 6 kts | 269° |
| 2026-05-08 00:43 | 42.20169 | -83.35642 | 646 ft | 5 kts | 269° |
| 2026-05-08 00:44 | 42.20169 | -83.35687 | 646 ft | 4 kts | 269° |
| 2026-05-08 00:44 | 42.20168 | -83.35724 | 646 ft | 3 kts | 269° |
| 2026-05-08 00:44 | 42.20168 | -83.35752 | 646 ft | 3 kts | 269° |
| 2026-05-08 00:44 | 42.20167 | -83.35780 | 646 ft | 3 kts | 268° |
| 2026-05-08 00:45 | 42.20167 | -83.35809 | 646 ft | 3 kts | 268° |
| 2026-05-08 00:45 | 42.20166 | -83.35844 | 646 ft | 5 kts | 269° |
| 2026-05-08 00:45 | 42.20165 | -83.35917 | 646 ft | 10 kts | 269° |
| 2026-05-08 00:45 | 42.20164 | -83.36002 | 646 ft | 11 kts | 269° |
| 2026-05-08 00:46 | 42.20163 | -83.36129 | 646 ft | 15 kts | 270° |
| 2026-05-08 00:46 | 42.20176 | -83.36269 | 646 ft | 14 kts | 280° |
| 2026-05-08 00:46 | 42.20198 | -83.36381 | 648 ft | 11 kts | 300° |
| 2026-05-08 00:46 | 42.20265 | -83.36404 | 646 ft | 10 kts | 8° |
| 2026-05-08 00:47 | 42.20328 | -83.36370 | 646 ft | 9 kts | 27° |
| 2026-05-08 00:47 | 42.20382 | -83.36330 | 647 ft | 8 kts | 29° |
| 2026-05-08 00:47 | 42.20430 | -83.36294 | 646 ft | 8 kts | 28° |
| 2026-05-08 00:47 | 42.20474 | -83.36261 | 646 ft | 7 kts | 28° |
| 2026-05-08 00:48 | 42.20513 | -83.36233 | 647 ft | 6 kts | 28° |
| 2026-05-08 00:48 | 42.20545 | -83.36209 | 646 ft | 5 kts | 28° |
| 2026-05-08 00:48 | 42.20582 | -83.36182 | 646 ft | 7 kts | 28° |
| 2026-05-08 00:48 | 42.20628 | -83.36147 | 646 ft | 9 kts | 29° |
| 2026-05-08 00:49 | 42.20686 | -83.36105 | 646 ft | 10 kts | 28° |
| 2026-05-08 00:49 | 42.20755 | -83.36055 | 647 ft | 12 kts | 28° |
| 2026-05-08 00:49 | 42.20835 | -83.35997 | 646 ft | 14 kts | 28° |
| 2026-05-08 00:49 | 42.20916 | -83.35938 | 646 ft | 13 kts | 28° |
| 2026-05-08 00:50 | 42.21000 | -83.35876 | 647 ft | 14 kts | 29° |
| 2026-05-08 00:50 | 42.21093 | -83.35806 | 646 ft | 16 kts | 29° |
| 2026-05-08 00:50 | 42.21200 | -83.35727 | 647 ft | 19 kts | 28° |
| 2026-05-08 00:50 | 42.21320 | -83.35638 | 646 ft | 21 kts | 28° |
| 2026-05-08 00:51 | 42.21439 | -83.35551 | 646 ft | 16 kts | 28° |
| 2026-05-08 00:51 | 42.21524 | -83.35482 | 646 ft | 14 kts | 44° |
| 2026-05-08 00:51 | 42.21544 | -83.35378 | 646 ft | 6 kts | 128° |
| 2026-05-08 00:51 | 42.21532 | -83.35372 | 648 ft | 2 kts | 145° |
| 2026-05-08 00:52 | 42.21495 | -83.35259 | 646 ft | 15 kts | 109° |
| 2026-05-08 00:52 | 42.21429 | -83.35217 | 646 ft | 12 kts | 203° |
| 2026-05-08 00:52 | 42.21393 | -83.35291 | 646 ft | 5 kts | 282° |
| 2026-05-08 00:52 | 42.21395 | -83.35297 | 646 ft | 0 kts | 291° |
| 2026-05-08 00:53 | 42.21401 | -83.35315 | 646 ft | 0 kts | 295° |
| 2026-05-08 00:53 | 42.21402 | -83.35316 | 646 ft | 0 kts | 295° |